sensor_id;sensor_type;location;lat;lon;timestamp;P1;P2;P0
23240;PMS7003;11789;53.482;9.862;2023-03-23T00:01:47;20.75;19.25;12.00
23240;PMS7003;11789;53.482;9.862;2023-03-23T00:04:15;21.00;19.25;13.50
23240;PMS7003;11789;53.482;9.862;2023-03-23T00:06:41;20.25;18.75;12.00
23240;PMS7003;11789;53.482;9.862;2023-03-23T00:09:08;24.00;22.50;12.75
23240;PMS7003;11789;53.482;9.862;2023-03-23T00:11:34;20.50;19.25;14.50
23240;PMS7003;11789;53.482;9.862;2023-03-23T00:14:00;24.00;22.25;12.00
23240;PMS7003;11789;53.482;9.862;2023-03-23T00:16:31;23.00;19.00;13.25
23240;PMS7003;11789;53.482;9.862;2023-03-23T00:18:59;22.75;21.75;13.75
23240;PMS7003;11789;53.482;9.862;2023-03-23T00:21:27;27.75;25.00;14.00
23240;PMS7003;11789;53.482;9.862;2023-03-23T00:24:19;25.25;25.25;15.00
23240;PMS7003;11789;53.482;9.862;2023-03-23T00:26:45;22.00;21.25;13.25
23240;PMS7003;11789;53.482;9.862;2023-03-23T00:29:18;23.25;23.00;14.25
23240;PMS7003;11789;53.482;9.862;2023-03-23T00:31:48;31.25;27.75;16.25
23240;PMS7003;11789;53.482;9.862;2023-03-23T00:34:15;27.75;26.75;15.50
23240;PMS7003;11789;53.482;9.862;2023-03-23T00:36:45;27.50;24.25;15.00
23240;PMS7003;11789;53.482;9.862;2023-03-23T00:39:12;31.25;29.50;19.00
23240;PMS7003;11789;53.482;9.862;2023-03-23T00:41:38;34.75;31.25;16.75
23240;PMS7003;11789;53.482;9.862;2023-03-23T00:44:03;23.00;22.50;17.00
23240;PMS7003;11789;53.482;9.862;2023-03-23T00:46:29;27.00;27.00;16.25
23240;PMS7003;11789;53.482;9.862;2023-03-23T00:48:55;25.00;24.50;15.00
23240;PMS7003;11789;53.482;9.862;2023-03-23T00:51:22;33.75;28.50;16.75
23240;PMS7003;11789;53.482;9.862;2023-03-23T00:53:49;36.75;31.25;16.25
23240;PMS7003;11789;53.482;9.862;2023-03-23T00:56:15;28.50;27.75;17.00
23240;PMS7003;11789;53.482;9.862;2023-03-23T00:58:40;23.00;23.00;15.00
23240;PMS7003;11789;53.482;9.862;2023-03-23T01:01:07;24.50;24.50;14.50
23240;PMS7003;11789;53.482;9.862;2023-03-23T01:03:32;25.50;24.50;13.50
23240;PMS7003;11789;53.482;9.862;2023-03-23T01:06:03;23.25;22.75;15.00
23240;PMS7003;11789;53.482;9.862;2023-03-23T01:08:37;28.00;25.50;16.50
23240;PMS7003;11789;53.482;9.862;2023-03-23T01:11:11;31.75;27.00;15.75
23240;PMS7003;11789;53.482;9.862;2023-03-23T01:13:38;26.50;25.00;14.75
23240;PMS7003;11789;53.482;9.862;2023-03-23T01:16:05;29.75;28.00;17.50
23240;PMS7003;11789;53.482;9.862;2023-03-23T01:18:31;29.00;27.75;17.75
23240;PMS7003;11789;53.482;9.862;2023-03-23T01:20:56;29.75;29.75;18.25
23240;PMS7003;11789;53.482;9.862;2023-03-23T01:23:21;34.25;28.50;18.00
23240;PMS7003;11789;53.482;9.862;2023-03-23T01:25:48;30.00;27.00;17.00
23240;PMS7003;11789;53.482;9.862;2023-03-23T01:28:14;34.75;29.75;17.00
23240;PMS7003;11789;53.482;9.862;2023-03-23T01:30:40;27.75;26.75;15.75
23240;PMS7003;11789;53.482;9.862;2023-03-23T01:33:06;28.75;26.75;15.50
23240;PMS7003;11789;53.482;9.862;2023-03-23T01:35:31;30.00;27.00;17.50
23240;PMS7003;11789;53.482;9.862;2023-03-23T01:37:57;34.50;33.00;20.75
23240;PMS7003;11789;53.482;9.862;2023-03-23T01:40:22;54.00;44.75;26.75
23240;PMS7003;11789;53.482;9.862;2023-03-23T01:42:48;38.00;32.25;20.25
23240;PMS7003;11789;53.482;9.862;2023-03-23T01:45:22;63.33;48.00;27.33
23240;PMS7003;11789;53.482;9.862;2023-03-23T01:47:59;61.00;48.00;28.33
23240;PMS7003;11789;53.482;9.862;2023-03-23T01:50:31;34.25;31.25;18.50
23240;PMS7003;11789;53.482;9.862;2023-03-23T01:53:02;36.75;31.25;21.00
23240;PMS7003;11789;53.482;9.862;2023-03-23T01:55:33;26.50;25.25;12.75
23240;PMS7003;11789;53.482;9.862;2023-03-23T01:58:01;27.50;26.00;18.25
23240;PMS7003;11789;53.482;9.862;2023-03-23T02:00:27;32.00;30.00;19.25
23240;PMS7003;11789;53.482;9.862;2023-03-23T02:02:53;24.25;23.25;15.25
23240;PMS7003;11789;53.482;9.862;2023-03-23T02:05:24;28.75;28.25;15.50
23240;PMS7003;11789;53.482;9.862;2023-03-23T02:08:03;26.50;25.75;16.00
23240;PMS7003;11789;53.482;9.862;2023-03-23T02:10:31;27.00;26.50;16.00
23240;PMS7003;11789;53.482;9.862;2023-03-23T02:12:58;32.25;29.75;16.25
23240;PMS7003;11789;53.482;9.862;2023-03-23T02:15:33;30.00;28.25;18.25
23240;PMS7003;11789;53.482;9.862;2023-03-23T02:23:52;30.00;28.75;18.75
23240;PMS7003;11789;53.482;9.862;2023-03-23T02:35:30;31.00;27.00;16.25
23240;PMS7003;11789;53.482;9.862;2023-03-23T02:38:09;32.00;29.25;19.50
23240;PMS7003;11789;53.482;9.862;2023-03-23T02:40:41;22.25;22.25;14.25
23240;PMS7003;11789;53.482;9.862;2023-03-23T02:43:11;24.50;22.75;16.00
23240;PMS7003;11789;53.482;9.862;2023-03-23T02:45:40;21.25;20.75;13.50
23240;PMS7003;11789;53.482;9.862;2023-03-23T02:48:08;23.50;23.50;15.50
23240;PMS7003;11789;53.482;9.862;2023-03-23T02:50:37;26.25;24.50;16.00
23240;PMS7003;11789;53.482;9.862;2023-03-23T02:53:08;29.25;24.00;15.25
23240;PMS7003;11789;53.482;9.862;2023-03-23T02:55:37;31.25;29.50;16.50
23240;PMS7003;11789;53.482;9.862;2023-03-23T02:58:07;27.25;25.50;16.00
23240;PMS7003;11789;53.482;9.862;2023-03-23T03:00:33;30.50;27.50;19.00
23240;PMS7003;11789;53.482;9.862;2023-03-23T03:02:59;27.25;26.50;15.50
23240;PMS7003;11789;53.482;9.862;2023-03-23T03:08:15;26.00;25.75;18.00
23240;PMS7003;11789;53.482;9.862;2023-03-23T03:10:59;30.25;27.50;18.00
23240;PMS7003;11789;53.482;9.862;2023-03-23T03:13:55;31.50;30.00;20.25
23240;PMS7003;11789;53.482;9.862;2023-03-23T03:16:27;28.25;28.25;19.00
23240;PMS7003;11789;53.482;9.862;2023-03-23T03:19:05;28.00;24.75;16.25
23240;PMS7003;11789;53.482;9.862;2023-03-23T03:21:37;30.75;29.25;15.75
23240;PMS7003;11789;53.482;9.862;2023-03-23T03:24:07;35.25;29.75;19.00
23240;PMS7003;11789;53.482;9.862;2023-03-23T03:26:36;28.00;25.25;16.50
23240;PMS7003;11789;53.482;9.862;2023-03-23T03:29:04;32.25;30.25;19.25
23240;PMS7003;11789;53.482;9.862;2023-03-23T03:31:35;29.50;26.75;17.25
23240;PMS7003;11789;53.482;9.862;2023-03-23T03:34:04;30.50;27.75;17.75
23240;PMS7003;11789;53.482;9.862;2023-03-23T03:36:31;26.25;24.50;18.75
23240;PMS7003;11789;53.482;9.862;2023-03-23T03:39:05;28.75;28.00;20.00
23240;PMS7003;11789;53.482;9.862;2023-03-23T03:41:34;27.75;27.75;19.00
23240;PMS7003;11789;53.482;9.862;2023-03-23T03:44:03;25.75;25.75;18.00
23240;PMS7003;11789;53.482;9.862;2023-03-23T03:46:30;32.00;27.75;19.50
23240;PMS7003;11789;53.482;9.862;2023-03-23T03:48:56;28.50;28.25;19.25
23240;PMS7003;11789;53.482;9.862;2023-03-23T03:51:23;27.50;27.50;19.25
23240;PMS7003;11789;53.482;9.862;2023-03-23T03:53:50;28.75;28.25;18.25
23240;PMS7003;11789;53.482;9.862;2023-03-23T03:56:22;27.75;26.50;17.75
23240;PMS7003;11789;53.482;9.862;2023-03-23T03:58:49;28.75;26.50;18.75
23240;PMS7003;11789;53.482;9.862;2023-03-23T04:01:16;25.25;23.75;16.50
23240;PMS7003;11789;53.482;9.862;2023-03-23T04:03:43;24.00;24.00;17.00
23240;PMS7003;11789;53.482;9.862;2023-03-23T04:06:09;28.75;22.75;15.00
23240;PMS7003;11789;53.482;9.862;2023-03-23T04:08:35;30.25;26.00;17.50
23240;PMS7003;11789;53.482;9.862;2023-03-23T04:11:03;28.00;26.50;17.50
23240;PMS7003;11789;53.482;9.862;2023-03-23T04:13:29;27.00;24.00;15.00
23240;PMS7003;11789;53.482;9.862;2023-03-23T04:15:55;28.00;25.00;16.75
23240;PMS7003;11789;53.482;9.862;2023-03-23T04:18:21;26.25;24.75;17.00
23240;PMS7003;11789;53.482;9.862;2023-03-23T04:20:47;30.00;26.25;17.00
23240;PMS7003;11789;53.482;9.862;2023-03-23T04:23:17;31.00;29.25;18.00
23240;PMS7003;11789;53.482;9.862;2023-03-23T04:25:49;31.50;30.00;20.00
23240;PMS7003;11789;53.482;9.862;2023-03-23T04:28:15;30.25;30.25;19.25
23240;PMS7003;11789;53.482;9.862;2023-03-23T04:30:43;30.00;30.00;19.75
23240;PMS7003;11789;53.482;9.862;2023-03-23T04:33:10;30.75;29.75;20.00
23240;PMS7003;11789;53.482;9.862;2023-03-23T04:35:41;26.00;24.25;17.50
23240;PMS7003;11789;53.482;9.862;2023-03-23T04:38:07;30.00;29.00;19.25
23240;PMS7003;11789;53.482;9.862;2023-03-23T04:40:38;33.75;29.50;18.50
23240;PMS7003;11789;53.482;9.862;2023-03-23T04:43:05;34.00;30.75;19.75
23240;PMS7003;11789;53.482;9.862;2023-03-23T04:45:32;29.50;29.00;19.75
23240;PMS7003;11789;53.482;9.862;2023-03-23T04:47:59;33.00;31.00;19.50
23240;PMS7003;11789;53.482;9.862;2023-03-23T04:50:29;27.75;27.00;18.25
23240;PMS7003;11789;53.482;9.862;2023-03-23T04:52:56;32.50;30.75;20.25
23240;PMS7003;11789;53.482;9.862;2023-03-23T04:55:23;28.75;27.25;18.00
23240;PMS7003;11789;53.482;9.862;2023-03-23T04:57:50;30.25;29.00;18.50
23240;PMS7003;11789;53.482;9.862;2023-03-23T05:00:16;31.00;29.00;19.25
23240;PMS7003;11789;53.482;9.862;2023-03-23T05:02:43;28.25;27.50;19.00
23240;PMS7003;11789;53.482;9.862;2023-03-23T05:05:12;32.25;28.25;17.50
23240;PMS7003;11789;53.482;9.862;2023-03-23T05:07:39;29.00;26.00;18.50
23240;PMS7003;11789;53.482;9.862;2023-03-23T05:10:06;27.50;25.50;17.50
23240;PMS7003;11789;53.482;9.862;2023-03-23T05:12:33;27.25;23.75;16.00
23240;PMS7003;11789;53.482;9.862;2023-03-23T05:14:59;28.75;28.75;16.75
23240;PMS7003;11789;53.482;9.862;2023-03-23T05:17:25;27.25;27.00;18.00
23240;PMS7003;11789;53.482;9.862;2023-03-23T05:19:51;29.25;24.75;18.00
23240;PMS7003;11789;53.482;9.862;2023-03-23T05:22:17;27.50;26.50;17.75
23240;PMS7003;11789;53.482;9.862;2023-03-23T05:24:46;28.00;26.50;17.75
23240;PMS7003;11789;53.482;9.862;2023-03-23T05:27:12;27.75;27.75;16.75
23240;PMS7003;11789;53.482;9.862;2023-03-23T05:29:39;26.75;23.75;16.50
23240;PMS7003;11789;53.482;9.862;2023-03-23T05:32:08;25.00;25.00;16.00
23240;PMS7003;11789;53.482;9.862;2023-03-23T05:34:34;22.75;21.75;15.00
23240;PMS7003;11789;53.482;9.862;2023-03-23T05:37:00;20.25;19.75;14.00
23240;PMS7003;11789;53.482;9.862;2023-03-23T05:39:28;3.25;3.25;0.00
23240;PMS7003;11789;53.482;9.862;2023-03-23T05:41:54;24.75;19.75;14.75
23240;PMS7003;11789;53.482;9.862;2023-03-23T05:44:20;21.50;19.75;14.50
23240;PMS7003;11789;53.482;9.862;2023-03-23T05:46:46;20.00;20.00;14.00
23240;PMS7003;11789;53.482;9.862;2023-03-23T05:49:12;19.00;17.75;12.25
23240;PMS7003;11789;53.482;9.862;2023-03-23T05:51:38;21.75;21.75;13.75
23240;PMS7003;11789;53.482;9.862;2023-03-23T05:54:04;21.25;20.00;12.75
23240;PMS7003;11789;53.482;9.862;2023-03-23T05:56:30;20.00;19.75;13.00
23240;PMS7003;11789;53.482;9.862;2023-03-23T05:58:56;16.00;16.00;11.75
23240;PMS7003;11789;53.482;9.862;2023-03-23T06:01:22;19.50;17.25;12.25
23240;PMS7003;11789;53.482;9.862;2023-03-23T06:03:49;23.25;19.50;13.75
23240;PMS7003;11789;53.482;9.862;2023-03-23T06:06:19;17.75;17.75;13.00
23240;PMS7003;11789;53.482;9.862;2023-03-23T06:08:45;15.50;15.50;11.00
23240;PMS7003;11789;53.482;9.862;2023-03-23T06:11:11;23.50;20.00;14.00
23240;PMS7003;11789;53.482;9.862;2023-03-23T06:13:37;21.75;19.00;13.00
23240;PMS7003;11789;53.482;9.862;2023-03-23T06:16:02;20.00;17.75;13.25
23240;PMS7003;11789;53.482;9.862;2023-03-23T06:18:29;14.00;14.00;10.00
23240;PMS7003;11789;53.482;9.862;2023-03-23T06:20:58;16.75;16.75;11.75
23240;PMS7003;11789;53.482;9.862;2023-03-23T06:23:25;14.50;12.00;10.75
23240;PMS7003;11789;53.482;9.862;2023-03-23T06:25:53;15.75;14.00;11.00
23240;PMS7003;11789;53.482;9.862;2023-03-23T06:28:22;13.25;13.25;9.75
23240;PMS7003;11789;53.482;9.862;2023-03-23T06:30:47;14.25;14.25;10.50
23240;PMS7003;11789;53.482;9.862;2023-03-23T06:33:12;10.75;10.75;8.75
23240;PMS7003;11789;53.482;9.862;2023-03-23T06:35:38;17.75;12.50;9.00
23240;PMS7003;11789;53.482;9.862;2023-03-23T06:38:03;13.00;11.00;9.00
23240;PMS7003;11789;53.482;9.862;2023-03-23T06:40:29;12.50;12.50;9.00
23240;PMS7003;11789;53.482;9.862;2023-03-23T06:42:56;14.00;12.50;9.25
23240;PMS7003;11789;53.482;9.862;2023-03-23T06:45:24;11.00;11.00;8.50
23240;PMS7003;11789;53.482;9.862;2023-03-23T06:47:50;11.50;11.50;9.50
23240;PMS7003;11789;53.482;9.862;2023-03-23T06:50:15;11.75;11.00;9.00
23240;PMS7003;11789;53.482;9.862;2023-03-23T06:52:45;12.00;10.75;8.00
23240;PMS7003;11789;53.482;9.862;2023-03-23T06:55:12;12.50;10.75;8.00
23240;PMS7003;11789;53.482;9.862;2023-03-23T06:57:38;9.50;9.50;7.00
23240;PMS7003;11789;53.482;9.862;2023-03-23T07:00:04;13.25;10.25;8.00
23240;PMS7003;11789;53.482;9.862;2023-03-23T07:02:32;10.50;10.50;8.25
23240;PMS7003;11789;53.482;9.862;2023-03-23T07:04:58;9.75;8.75;7.00
23240;PMS7003;11789;53.482;9.862;2023-03-23T07:07:23;8.75;8.75;6.00
23240;PMS7003;11789;53.482;9.862;2023-03-23T07:09:49;9.75;9.75;8.00
23240;PMS7003;11789;53.482;9.862;2023-03-23T07:12:14;8.75;8.75;7.25
23240;PMS7003;11789;53.482;9.862;2023-03-23T07:14:40;10.75;10.75;8.00
23240;PMS7003;11789;53.482;9.862;2023-03-23T07:17:06;9.50;9.50;7.00
23240;PMS7003;11789;53.482;9.862;2023-03-23T07:19:32;13.50;12.00;8.00
23240;PMS7003;11789;53.482;9.862;2023-03-23T07:21:58;8.00;8.00;6.75
23240;PMS7003;11789;53.482;9.862;2023-03-23T07:24:23;10.25;10.25;7.50
23240;PMS7003;11789;53.482;9.862;2023-03-23T07:26:49;9.25;9.00;7.00
23240;PMS7003;11789;53.482;9.862;2023-03-23T07:29:16;11.25;11.25;8.75
23240;PMS7003;11789;53.482;9.862;2023-03-23T07:31:41;12.75;11.00;8.00
23240;PMS7003;11789;53.482;9.862;2023-03-23T07:34:07;13.25;12.50;8.00
23240;PMS7003;11789;53.482;9.862;2023-03-23T07:36:33;11.25;10.00;8.00
23240;PMS7003;11789;53.482;9.862;2023-03-23T07:39:02;10.75;9.00;7.00
23240;PMS7003;11789;53.482;9.862;2023-03-23T07:41:32;9.50;9.50;8.00
23240;PMS7003;11789;53.482;9.862;2023-03-23T07:43:58;9.00;9.00;7.50
23240;PMS7003;11789;53.482;9.862;2023-03-23T07:46:23;8.00;8.00;7.00
23240;PMS7003;11789;53.482;9.862;2023-03-23T07:48:49;12.50;10.00;8.00
23240;PMS7003;11789;53.482;9.862;2023-03-23T07:51:15;11.00;11.00;8.00
23240;PMS7003;11789;53.482;9.862;2023-03-23T07:53:43;9.50;9.50;7.25
23240;PMS7003;11789;53.482;9.862;2023-03-23T07:56:12;11.25;11.25;8.00
23240;PMS7003;11789;53.482;9.862;2023-03-23T07:58:40;12.75;11.75;9.25
23240;PMS7003;11789;53.482;9.862;2023-03-23T08:01:06;11.00;11.00;8.00
23240;PMS7003;11789;53.482;9.862;2023-03-23T08:03:32;14.00;12.50;11.00
23240;PMS7003;11789;53.482;9.862;2023-03-23T08:05:59;13.25;13.25;9.25
23240;PMS7003;11789;53.482;9.862;2023-03-23T08:08:25;15.25;13.50;9.00
23240;PMS7003;11789;53.482;9.862;2023-03-23T08:10:50;15.25;14.75;10.00
23240;PMS7003;11789;53.482;9.862;2023-03-23T08:13:16;15.00;13.25;10.50
23240;PMS7003;11789;53.482;9.862;2023-03-23T08:15:42;14.00;14.00;11.00
23240;PMS7003;11789;53.482;9.862;2023-03-23T08:18:08;14.50;14.00;10.00
23240;PMS7003;11789;53.482;9.862;2023-03-23T08:20:33;15.00;14.00;11.00
23240;PMS7003;11789;53.482;9.862;2023-03-23T08:23:00;18.00;16.25;12.00
23240;PMS7003;11789;53.482;9.862;2023-03-23T08:25:27;15.00;13.50;10.00
23240;PMS7003;11789;53.482;9.862;2023-03-23T08:27:56;15.00;15.00;12.00
23240;PMS7003;11789;53.482;9.862;2023-03-23T08:30:22;16.00;13.75;11.00
23240;PMS7003;11789;53.482;9.862;2023-03-23T08:32:49;15.00;14.00;10.25
23240;PMS7003;11789;53.482;9.862;2023-03-23T08:35:16;13.25;13.25;10.00
23240;PMS7003;11789;53.482;9.862;2023-03-23T08:37:42;12.50;12.00;9.00
23240;PMS7003;11789;53.482;9.862;2023-03-23T08:40:09;15.25;13.50;10.50
23240;PMS7003;11789;53.482;9.862;2023-03-23T08:42:41;10.00;10.00;7.00
23240;PMS7003;11789;53.482;9.862;2023-03-23T08:45:09;12.00;11.50;9.75
23240;PMS7003;11789;53.482;9.862;2023-03-23T08:47:36;10.50;9.75;7.50
23240;PMS7003;11789;53.482;9.862;2023-03-23T08:50:04;7.00;7.00;5.75
23240;PMS7003;11789;53.482;9.862;2023-03-23T08:52:30;7.00;6.25;5.25
23240;PMS7003;11789;53.482;9.862;2023-03-23T08:54:56;6.00;5.75;5.00
23240;PMS7003;11789;53.482;9.862;2023-03-23T08:57:22;6.00;6.00;5.00
23240;PMS7003;11789;53.482;9.862;2023-03-23T08:59:49;6.00;4.75;4.00
23240;PMS7003;11789;53.482;9.862;2023-03-23T09:02:15;7.00;5.75;4.00
23240;PMS7003;11789;53.482;9.862;2023-03-23T09:04:41;4.00;4.00;3.00
23240;PMS7003;11789;53.482;9.862;2023-03-23T09:07:10;3.00;3.00;3.00
23240;PMS7003;11789;53.482;9.862;2023-03-23T09:09:37;3.25;3.25;2.00
23240;PMS7003;11789;53.482;9.862;2023-03-23T09:12:07;3.25;3.25;2.00
23240;PMS7003;11789;53.482;9.862;2023-03-23T09:14:33;3.00;2.75;2.50
23240;PMS7003;11789;53.482;9.862;2023-03-23T09:17:01;4.00;2.00;2.00
23240;PMS7003;11789;53.482;9.862;2023-03-23T09:19:28;2.00;2.00;1.25
23240;PMS7003;11789;53.482;9.862;2023-03-23T09:21:54;5.25;3.50;3.00
23240;PMS7003;11789;53.482;9.862;2023-03-23T09:24:20;6.00;3.00;2.00
23240;PMS7003;11789;53.482;9.862;2023-03-23T09:26:46;6.50;2.25;2.00
23240;PMS7003;11789;53.482;9.862;2023-03-23T09:29:11;1.75;1.50;1.25
23240;PMS7003;11789;53.482;9.862;2023-03-23T09:31:38;3.75;2.25;1.50
23240;PMS7003;11789;53.482;9.862;2023-03-23T09:34:05;2.50;2.50;2.00
23240;PMS7003;11789;53.482;9.862;2023-03-23T09:36:31;8.00;3.00;2.00
23240;PMS7003;11789;53.482;9.862;2023-03-23T09:38:57;1.50;1.25;1.00
23240;PMS7003;11789;53.482;9.862;2023-03-23T09:44:04;3.75;1.00;1.00
23240;PMS7003;11789;53.482;9.862;2023-03-23T09:49:18;2.50;2.50;2.00
23240;PMS7003;11789;53.482;9.862;2023-03-23T09:52:00;3.25;2.75;1.50
23240;PMS7003;11789;53.482;9.862;2023-03-23T09:54:35;4.25;2.00;1.00
23240;PMS7003;11789;53.482;9.862;2023-03-23T09:57:04;2.00;2.00;2.00
23240;PMS7003;11789;53.482;9.862;2023-03-23T10:02:25;2.75;2.75;2.00
23240;PMS7003;11789;53.482;9.862;2023-03-23T10:05:01;2.25;2.00;1.50
23240;PMS7003;11789;53.482;9.862;2023-03-23T10:07:46;4.25;1.00;1.00
23240;PMS7003;11789;53.482;9.862;2023-03-23T10:10:13;2.50;2.50;2.00
23240;PMS7003;11789;53.482;9.862;2023-03-23T10:12:42;4.00;2.50;2.00
23240;PMS7003;11789;53.482;9.862;2023-03-23T10:15:23;3.00;3.00;2.75
23240;PMS7003;11789;53.482;9.862;2023-03-23T10:17:58;2.75;2.75;2.00
23240;PMS7003;11789;53.482;9.862;2023-03-23T10:25:45;6.50;3.50;2.50
23240;PMS7003;11789;53.482;9.862;2023-03-23T10:28:21;2.00;2.00;1.50
23240;PMS7003;11789;53.482;9.862;2023-03-23T10:30:59;4.50;2.75;2.00
23240;PMS7003;11789;53.482;9.862;2023-03-23T10:33:43;4.25;2.50;1.50
23240;PMS7003;11789;53.482;9.862;2023-03-23T10:41:16;4.00;3.75;2.00
23240;PMS7003;11789;53.482;9.862;2023-03-23T10:43:44;5.00;3.00;2.00
23240;PMS7003;11789;53.482;9.862;2023-03-23T10:49:10;5.50;3.00;2.00
23240;PMS7003;11789;53.482;9.862;2023-03-23T10:51:40;7.00;3.50;2.00
23240;PMS7003;11789;53.482;9.862;2023-03-23T10:54:09;3.00;3.00;3.00
23240;PMS7003;11789;53.482;9.862;2023-03-23T10:59:25;7.50;3.75;2.75
23240;PMS7003;11789;53.482;9.862;2023-03-23T11:01:54;5.75;5.00;3.00
23240;PMS7003;11789;53.482;9.862;2023-03-23T11:04:23;3.50;3.50;2.25
23240;PMS7003;11789;53.482;9.862;2023-03-23T11:06:51;2.50;2.50;2.00
23240;PMS7003;11789;53.482;9.862;2023-03-23T11:09:19;2.75;2.75;2.50
23240;PMS7003;11789;53.482;9.862;2023-03-23T11:11:50;3.50;3.50;2.50
23240;PMS7003;11789;53.482;9.862;2023-03-23T11:14:24;6.50;3.00;2.50
23240;PMS7003;11789;53.482;9.862;2023-03-23T11:16:55;7.25;3.75;2.25
23240;PMS7003;11789;53.482;9.862;2023-03-23T11:19:27;4.50;2.75;1.50
23240;PMS7003;11789;53.482;9.862;2023-03-23T11:22:16;3.25;2.75;2.50
23240;PMS7003;11789;53.482;9.862;2023-03-23T11:24:51;5.00;5.00;3.50
23240;PMS7003;11789;53.482;9.862;2023-03-23T11:27:19;4.75;4.75;3.25
23240;PMS7003;11789;53.482;9.862;2023-03-23T11:29:48;6.00;6.00;4.25
23240;PMS7003;11789;53.482;9.862;2023-03-23T11:32:21;12.00;7.25;4.75
23240;PMS7003;11789;53.482;9.862;2023-03-23T11:34:53;8.00;7.00;4.50
23240;PMS7003;11789;53.482;9.862;2023-03-23T11:37:28;7.00;7.00;5.00
23240;PMS7003;11789;53.482;9.862;2023-03-23T11:42:42;6.50;6.50;4.75
23240;PMS7003;11789;53.482;9.862;2023-03-23T11:45:22;6.00;5.50;4.25
23240;PMS7003;11789;53.482;9.862;2023-03-23T11:50:52;7.00;5.50;4.50
23240;PMS7003;11789;53.482;9.862;2023-03-23T11:59:01;6.00;5.50;5.00
23240;PMS7003;11789;53.482;9.862;2023-03-23T12:09:53;9.75;7.75;5.75
23240;PMS7003;11789;53.482;9.862;2023-03-23T12:12:32;8.00;6.50;5.00
23240;PMS7003;11789;53.482;9.862;2023-03-23T12:15:23;9.25;9.25;5.75
23240;PMS7003;11789;53.482;9.862;2023-03-23T12:18:00;9.00;7.75;5.25
23240;PMS7003;11789;53.482;9.862;2023-03-23T12:20:47;11.25;8.75;5.50
23240;PMS7003;11789;53.482;9.862;2023-03-23T12:47:49;8.00;7.50;4.25
23240;PMS7003;11789;53.482;9.862;2023-03-23T12:50:30;9.25;7.25;4.25
23240;PMS7003;11789;53.482;9.862;2023-03-23T12:53:11;9.00;5.75;3.50
23240;PMS7003;11789;53.482;9.862;2023-03-23T12:56:14;5.50;5.50;4.50
23240;PMS7003;11789;53.482;9.862;2023-03-23T12:58:38;6.50;6.50;4.00
23240;PMS7003;11789;53.482;9.862;2023-03-23T13:01:11;6.50;6.50;4.00
23240;PMS7003;11789;53.482;9.862;2023-03-23T13:03:54;7.75;6.25;4.00
23240;PMS7003;11789;53.482;9.862;2023-03-23T13:06:31;8.75;6.75;4.00
23240;PMS7003;11789;53.482;9.862;2023-03-23T13:09:03;4.75;4.75;3.75
23240;PMS7003;11789;53.482;9.862;2023-03-23T13:11:32;7.00;7.00;4.75
23240;PMS7003;11789;53.482;9.862;2023-03-23T13:16:58;9.00;7.00;4.00
23240;PMS7003;11789;53.482;9.862;2023-03-23T13:19:28;7.75;6.50;4.75
23240;PMS7003;11789;53.482;9.862;2023-03-23T13:22:10;7.50;6.25;4.00
23240;PMS7003;11789;53.482;9.862;2023-03-23T13:24:49;4.00;4.00;3.75
23240;PMS7003;11789;53.482;9.862;2023-03-23T13:27:25;6.50;4.00;3.75
23240;PMS7003;11789;53.482;9.862;2023-03-23T13:29:55;5.25;4.25;3.50
23240;PMS7003;11789;53.482;9.862;2023-03-23T13:32:29;7.00;5.75;4.00
23240;PMS7003;11789;53.482;9.862;2023-03-23T13:35:02;4.50;4.50;3.50
23240;PMS7003;11789;53.482;9.862;2023-03-23T13:37:31;7.75;4.50;2.75
23240;PMS7003;11789;53.482;9.862;2023-03-23T13:42:51;4.75;4.75;4.50
23240;PMS7003;11789;53.482;9.862;2023-03-23T13:47:46;3.00;3.00;2.00
23240;PMS7003;11789;53.482;9.862;2023-03-23T13:50:24;3.00;3.00;2.25
23240;PMS7003;11789;53.482;9.862;2023-03-23T13:52:53;3.00;3.00;2.25
23240;PMS7003;11789;53.482;9.862;2023-03-23T13:55:29;4.00;4.00;3.00
23240;PMS7003;11789;53.482;9.862;2023-03-23T14:13:58;3.50;2.00;2.00
23240;PMS7003;11789;53.482;9.862;2023-03-23T14:16:25;0.25;0.25;0.25
23240;PMS7003;11789;53.482;9.862;2023-03-23T14:19:03;3.00;1.50;1.00
23240;PMS7003;11789;53.482;9.862;2023-03-23T14:21:41;1.00;1.00;1.00
23240;PMS7003;11789;53.482;9.862;2023-03-23T14:24:21;2.00;2.00;1.00
23240;PMS7003;11789;53.482;9.862;2023-03-23T14:26:51;3.50;2.00;1.50
23240;PMS7003;11789;53.482;9.862;2023-03-23T14:29:19;1.50;1.50;1.00
23240;PMS7003;11789;53.482;9.862;2023-03-23T14:31:48;1.00;1.00;1.00
23240;PMS7003;11789;53.482;9.862;2023-03-23T14:34:19;3.00;2.00;1.00
23240;PMS7003;11789;53.482;9.862;2023-03-23T14:36:46;1.25;1.25;1.25
23240;PMS7003;11789;53.482;9.862;2023-03-23T14:39:25;2.00;2.00;1.75
23240;PMS7003;11789;53.482;9.862;2023-03-23T14:42:00;2.25;1.75;1.00
23240;PMS7003;11789;53.482;9.862;2023-03-23T14:44:30;2.25;2.25;2.00
23240;PMS7003;11789;53.482;9.862;2023-03-23T14:47:01;2.00;2.00;1.00
23240;PMS7003;11789;53.482;9.862;2023-03-23T14:49:30;3.25;1.75;1.75
23240;PMS7003;11789;53.482;9.862;2023-03-23T14:52:02;1.50;1.50;1.00
23240;PMS7003;11789;53.482;9.862;2023-03-23T14:54:36;1.25;1.25;1.00
23240;PMS7003;11789;53.482;9.862;2023-03-23T14:57:13;1.50;1.00;1.00
23240;PMS7003;11789;53.482;9.862;2023-03-23T14:59:42;3.25;2.00;1.50
23240;PMS7003;11789;53.482;9.862;2023-03-23T15:02:28;2.00;2.00;2.00
23240;PMS7003;11789;53.482;9.862;2023-03-23T15:05:09;2.00;2.00;1.00
23240;PMS7003;11789;53.482;9.862;2023-03-23T15:07:38;3.00;3.00;1.00
23240;PMS7003;11789;53.482;9.862;2023-03-23T15:10:08;2.50;2.50;2.00
23240;PMS7003;11789;53.482;9.862;2023-03-23T15:12:39;3.00;3.00;2.00
23240;PMS7003;11789;53.482;9.862;2023-03-23T15:15:05;3.50;3.50;3.00
23240;PMS7003;11789;53.482;9.862;2023-03-23T15:17:41;2.50;2.50;2.00
23240;PMS7003;11789;53.482;9.862;2023-03-23T15:20:24;3.00;3.00;3.00
23240;PMS7003;11789;53.482;9.862;2023-03-23T15:23:04;2.00;2.00;1.50
23240;PMS7003;11789;53.482;9.862;2023-03-23T15:25:32;7.00;4.00;2.00
23240;PMS7003;11789;53.482;9.862;2023-03-23T15:30:52;4.00;4.00;3.00
23240;PMS7003;11789;53.482;9.862;2023-03-23T15:33:19;2.50;2.50;2.00
23240;PMS7003;11789;53.482;9.862;2023-03-23T15:35:51;2.00;2.00;1.75
23240;PMS7003;11789;53.482;9.862;2023-03-23T15:38:25;6.25;2.25;1.75
23240;PMS7003;11789;53.482;9.862;2023-03-23T15:40:56;5.00;3.00;2.25
23240;PMS7003;11789;53.482;9.862;2023-03-23T15:44:10;1.25;1.25;1.00
23240;PMS7003;11789;53.482;9.862;2023-03-23T15:46:22;5.00;1.25;1.00
23240;PMS7003;11789;53.482;9.862;2023-03-23T15:49:08;1.50;1.50;1.00
23240;PMS7003;11789;53.482;9.862;2023-03-23T15:51:35;3.50;2.00;1.50
23240;PMS7003;11789;53.482;9.862;2023-03-23T15:54:02;2.00;2.00;1.25
23240;PMS7003;11789;53.482;9.862;2023-03-23T15:56:27;1.00;1.00;0.25
23240;PMS7003;11789;53.482;9.862;2023-03-23T15:58:54;4.50;3.00;2.00
23240;PMS7003;11789;53.482;9.862;2023-03-23T16:01:23;1.00;1.00;1.00
23240;PMS7003;11789;53.482;9.862;2023-03-23T16:03:51;2.00;2.00;1.25
23240;PMS7003;11789;53.482;9.862;2023-03-23T16:06:19;2.00;1.00;1.00
23240;PMS7003;11789;53.482;9.862;2023-03-23T16:08:47;2.00;2.00;2.00
23240;PMS7003;11789;53.482;9.862;2023-03-23T16:11:13;4.00;2.50;1.25